Dar Mlodziezy — SQLZ — position and weather

sailwx.info

Track history (hours):
 
Tides and Currents Weather Stations Pressure Air Temp Water Temp Dewpoint Dewpoint Depression Visibility Wind Speed Wind Dir Waves Ship Positions

Dar Mlodziezy

Training ship for Gdynia Maritime University, Poland.

Ship's website: http://www.am.gdynia.pl/armator/darmlodziezy.php

Last reported at 2019-Feb-11 20:15 UTC. Time now 2019-Feb-16 03:41 UTC.
Position N 26°08' W 079°29'.

Length 95 m; beam 14 m.

Type: . MMSI: 261148000.

Date/timePositionNaut miles runAvg speedWind from/ knotsBaromVisibWave heightAir tempDewpointWater temp
2019-Feb-11 20:15N 26°08' W 079°29'2 9.0
2019-Feb-11 20:00N 26°08' W 079°31'4 9.1
2019-Feb-11 19:31N 26°07' W 079°36'5 9.2
2019-Feb-11 19:01N 26°07' W 079°41'5 9.1
2019-Feb-11 18:30N 26°06' W 079°47'4 8.8
2019-Feb-11 18:00N 26°06' W 079°51'4 8.2
2019-Feb-11 17:31N 26°06' W 079°56'4 8.5
2019-Feb-11 17:00N 26°06' W 080°01'4 8.2
2019-Feb-11 16:31N 26°05' W 080°05'2 3.7
2019-Feb-11 16:00N 26°06' W 080°07'0 0.0
2019-Feb-11 15:30N 26°06' W 080°07'0 0.0
2019-Feb-11 15:01N 26°06' W 080°07'0 0.0
2019-Feb-11 14:30N 26°06' W 080°07'0 0.0
2019-Feb-11 14:00N 26°06' W 080°07'0 0.0
2019-Feb-11 13:30N 26°06' W 080°07'0 0.0
2019-Feb-11 13:00N 26°06' W 080°07'0 0.0
2019-Feb-11 12:30N 26°06' W 080°07'0 0.0
2019-Feb-11 12:00N 26°06' W 080°07'0 0.0
2019-Feb-11 11:30N 26°06' W 080°07'0 0.0
2019-Feb-11 11:00N 26°06' W 080°07'0 0.0
2019-Feb-11 10:30N 26°06' W 080°07'0 0.0
2019-Feb-11 10:00N 26°06' W 080°07'0 0.0
2019-Feb-11 09:30N 26°06' W 080°07'0 0.0
2019-Feb-11 09:00N 26°06' W 080°07'0 0.0
2019-Feb-11 08:30N 26°06' W 080°07'0 0.0
2019-Feb-11 08:00N 26°06' W 080°07'0 0.0
2019-Feb-11 07:30N 26°06' W 080°07'0 0.0
2019-Feb-11 07:00N 26°06' W 080°07'0 0.0
2019-Feb-11 06:30N 26°06' W 080°07'0 0.0
2019-Feb-11 06:00N 26°06' W 080°07'0 0.0
2019-Feb-11 05:30N 26°06' W 080°07'0 0.0
2019-Feb-11 05:01N 26°06' W 080°07'0 0.0
2019-Feb-11 04:30N 26°06' W 080°07'0 0.0
2019-Feb-11 04:00N 26°06' W 080°07'0 0.0
2019-Feb-11 03:30N 26°06' W 080°07'0 0.0
2019-Feb-11 03:00N 26°06' W 080°07'0 0.0
2019-Feb-11 02:30N 26°06' W 080°07'0 0.0
2019-Feb-11 02:00N 26°06' W 080°07'0 0.0
2019-Feb-11 01:30N 26°06' W 080°07'0 0.0
2019-Feb-11 01:00N 26°06' W 080°07'0 0.0
2019-Feb-11 00:30N 26°06' W 080°07'0 0.0
2019-Feb-11 00:00N 26°06' W 080°07'0 0.0
2019-Feb-10 23:30N 26°06' W 080°07'0 0.0
2019-Feb-10 23:00N 26°06' W 080°07'0 0.0
2019-Feb-10 22:31N 26°06' W 080°07'0 0.0
2019-Feb-10 22:00N 26°06' W 080°07'0 0.0
2019-Feb-10 21:30N 26°06' W 080°07'0 0.0
2019-Feb-10 21:00N 26°06' W 080°07'0 0.0
2019-Feb-10 20:30N 26°06' W 080°07'0 0.0
2019-Feb-10 20:00N 26°06' W 080°07'0 0.0
2019-Feb-10 19:30N 26°06' W 080°07'0 0.0
2019-Feb-10 19:00N 26°06' W 080°07'0 0.0
2019-Feb-10 18:30N 26°06' W 080°07'0 0.0
2019-Feb-10 18:00N 26°06' W 080°07'0 0.0
2019-Feb-10 17:30N 26°06' W 080°07'0 0.0
2019-Feb-10 17:00N 26°06' W 080°07'0 0.0
2019-Feb-10 16:30N 26°06' W 080°07'0 0.0
2019-Feb-10 16:01N 26°06' W 080°07'0 0.0
2019-Feb-10 15:31N 26°06' W 080°07'0 0.0
2019-Feb-10 15:00N 26°06' W 080°07'0 0.0
2019-Feb-10 14:31N 26°06' W 080°07'0 0.0
2019-Feb-10 14:00N 26°06' W 080°07'0 0.0
2019-Feb-10 13:31N 26°06' W 080°07'0 0.0
2019-Feb-10 13:01N 26°06' W 080°07'0 0.0
2019-Feb-10 12:30N 26°06' W 080°07'0 0.0
2019-Feb-10 12:00N 26°06' W 080°07'0 0.0
2019-Feb-10 11:30N 26°06' W 080°07'0 0.0
2019-Feb-10 11:00N 26°06' W 080°07'0 0.0
2019-Feb-10 10:31N 26°06' W 080°07'0 0.0
2019-Feb-10 10:00N 26°06' W 080°07'0 0.0
2019-Feb-10 09:31N 26°06' W 080°07'0 0.0
2019-Feb-10 09:00N 26°06' W 080°07'0 0.0
2019-Feb-10 08:30N 26°06' W 080°07'0 0.0
2019-Feb-10 08:00N 26°06' W 080°07'0 0.0
2019-Feb-10 07:30N 26°06' W 080°07'0 0.0
2019-Feb-10 07:01N 26°06' W 080°07'0 0.0
2019-Feb-10 06:30N 26°06' W 080°07'0 0.0
2019-Feb-10 06:00N 26°06' W 080°07'0 0.0
2019-Feb-10 05:30N 26°06' W 080°07'0 0.0
2019-Feb-10 05:00N 26°06' W 080°07'0 0.0
2019-Feb-10 04:30N 26°06' W 080°07'0 0.0
2019-Feb-10 04:00N 26°06' W 080°07'0 0.0
2019-Feb-10 03:30N 26°06' W 080°07'0 0.0
2019-Feb-10 03:00N 26°06' W 080°07'0 0.0
2019-Feb-10 02:30N 26°06' W 080°07'0 0.0
2019-Feb-10 02:00N 26°06' W 080°07'0 0.0
2019-Feb-10 01:30N 26°06' W 080°07'0 0.0
2019-Feb-10 01:01N 26°06' W 080°07'0 0.0
2019-Feb-10 00:30N 26°06' W 080°07'0 0.0
2019-Feb-10 00:00N 26°06' W 080°07'0 0.0
2019-Feb-09 23:30N 26°06' W 080°07'0 0.0
2019-Feb-09 23:00N 26°06' W 080°07'0 0.0
2019-Feb-09 22:30N 26°06' W 080°07'0 0.0
2019-Feb-09 22:00N 26°06' W 080°07'0 0.0
2019-Feb-09 21:31N 26°06' W 080°07'0 0.0
2019-Feb-09 21:00N 26°06' W 080°07'0 0.0
2019-Feb-09 20:30N 26°06' W 080°07'0 0.0
2019-Feb-09 20:00N 26°06' W 080°07'0 0.0
2019-Feb-09 19:30N 26°06' W 080°07'0 0.0
2019-Feb-09 19:00N 26°06' W 080°07'0 0.0
2019-Feb-09 18:31N 26°06' W 080°07'0 0.2
2019-Feb-09 18:00N 26°06' W 080°07'0 0.0
2019-Feb-09 17:30N 26°06' W 080°07'0 0.0
2019-Feb-09 17:00N 26°06' W 080°07'0 0.0
2019-Feb-09 16:30N 26°06' W 080°07'0 0.0
2019-Feb-09 16:00N 26°06' W 080°07'0 0.0
2019-Feb-09 15:30N 26°06' W 080°07'0 0.0
2019-Feb-09 15:00N 26°06' W 080°07'0 0.0
2019-Feb-09 14:31N 26°06' W 080°07'0 0.0
2019-Feb-09 14:01N 26°06' W 080°07'0 0.0
2019-Feb-09 13:30N 26°06' W 080°07'0 0.0
2019-Feb-09 13:00N 26°06' W 080°07'0 0.0
2019-Feb-09 12:30N 26°06' W 080°07'0 0.0
2019-Feb-09 12:00N 26°06' W 080°07'0 0.0
2019-Feb-09 11:30N 26°06' W 080°07'0 0.0
2019-Feb-09 11:00N 26°06' W 080°07'0 0.0
2019-Feb-09 10:30N 26°06' W 080°07'0 0.0
2019-Feb-09 10:00N 26°06' W 080°07'0 0.0
2019-Feb-09 09:31N 26°06' W 080°07'0 0.0
2019-Feb-09 09:00N 26°06' W 080°07'0 0.0
2019-Feb-09 08:31N 26°06' W 080°07'0 0.0
2019-Feb-09 08:00N 26°06' W 080°07'0 0.0
2019-Feb-09 07:30N 26°06' W 080°07'0 0.0
2019-Feb-09 07:01N 26°06' W 080°07'0 0.0
2019-Feb-09 06:30N 26°06' W 080°07'0 0.0
2019-Feb-09 06:00N 26°06' W 080°07'0 0.0
2019-Feb-09 05:30N 26°06' W 080°07'0 0.0
2019-Feb-09 05:00N 26°06' W 080°07'0 0.0
2019-Feb-09 04:30N 26°06' W 080°07'0 0.0
2019-Feb-09 04:00N 26°06' W 080°07'0 0.0
2019-Feb-09 03:30N 26°06' W 080°07'0 0.0
2019-Feb-09 03:00N 26°06' W 080°07'0 0.0
2019-Feb-09 02:30N 26°06' W 080°07'0 0.0
2019-Feb-09 02:00N 26°06' W 080°07'0 0.0
2019-Feb-09 01:30N 26°06' W 080°07'0 0.0
2019-Feb-09 01:00N 26°06' W 080°07'0 0.0
2019-Feb-09 00:30N 26°06' W 080°07'0 0.0
2019-Feb-09 00:00N 26°06' W 080°07'0 0.0
2019-Feb-08 23:30N 26°06' W 080°07'0 0.0
2019-Feb-08 23:00N 26°06' W 080°07'0 0.0
2019-Feb-08 22:30N 26°06' W 080°07'0 0.0
2019-Feb-08 22:00N 26°06' W 080°07'0 0.0
2019-Feb-08 21:30N 26°06' W 080°07'0 0.0
2019-Feb-08 21:01N 26°06' W 080°07'0 0.0
2019-Feb-08 20:30N 26°06' W 080°07'0 0.0
2019-Feb-08 20:01N 26°06' W 080°07'0 0.0
2019-Feb-08 19:30N 26°06' W 080°07'0 0.0
2019-Feb-08 19:01N 26°06' W 080°07'0 0.0
2019-Feb-08 18:30N 26°06' W 080°07'0 0.0
2019-Feb-08 18:00N 26°06' W 080°07'0 0.0
2019-Feb-08 17:31N 26°06' W 080°07'0 0.0
2019-Feb-08 17:01N 26°06' W 080°07'0 0.0
2019-Feb-08 16:31N 26°06' W 080°07'0 0.0
2019-Feb-08 16:00N 26°06' W 080°07'0 0.4
2019-Feb-08 15:30N 26°06' W 080°07'3 5.1
2019-Feb-08 15:00N 26°05' W 080°04'3 6.8
2019-Feb-08 14:30N 26°05' W 080°01'1 1.6
2019-Feb-08 14:00N 26°04' W 080°01'1 1.1
2019-Feb-08 13:30N 26°03' W 080°01'1 2.0
2019-Feb-08 13:00N 26°02' W 080°01'2 3.2
2019-Feb-08 12:30N 26°01' W 080°01'2 4.5
2019-Feb-08 12:00N 25°59' W 080°00'2 4.8
2019-Feb-08 11:30N 25°56' W 080°01'2 4.7
2019-Feb-08 11:00N 25°54' W 080°02'2 4.3
2019-Feb-08 10:31N 25°52' W 080°02'3 5.1
2019-Feb-08 10:00N 25°50' W 080°01'3 5.4
2019-Feb-08 09:30N 25°47' W 080°01'3 6.1
2019-Feb-08 09:00N 25°44' W 080°00'3 6.4
2019-Feb-08 08:30N 25°41' W 079°60'3 6.5
2019-Feb-08 08:00N 25°38' W 079°60'3 6.4
2019-Feb-08 07:31N 25°34' W 079°59'3 6.3
2019-Feb-08 07:00N 25°31' W 079°59'  
Track history (hours):
 
Tides and Currents Weather Stations Pressure Air Temp Water Temp Dewpoint Dewpoint Depression Visibility Wind Speed Wind Dir Waves Ship Positions

Dar Mlodziezy

Training ship for Gdynia Maritime University, Poland.

Ship's website: http://www.am.gdynia.pl/armator/darmlodziezy.php

Last reported at 2019-Feb-11 20:15 UTC. Time now 2019-Feb-16 03:41 UTC.
Position N 26°08' W 079°29'.

Length 95 m; beam 14 m.

Type: . MMSI: 261148000.

Date/timePositionNaut miles runAvg speedWind from/ knotsBaromVisibWave heightAir tempDewpointWater temp
2019-Feb-11 20:15N 26°08' W 079°29'2 9.0
2019-Feb-11 20:00N 26°08' W 079°31'4 9.1
2019-Feb-11 19:31N 26°07' W 079°36'5 9.2
2019-Feb-11 19:01N 26°07' W 079°41'5 9.1
2019-Feb-11 18:30N 26°06' W 079°47'4 8.8
2019-Feb-11 18:00N 26°06' W 079°51'4 8.2
2019-Feb-11 17:31N 26°06' W 079°56'4 8.5
2019-Feb-11 17:00N 26°06' W 080°01'4 8.2
2019-Feb-11 16:31N 26°05' W 080°05'2 3.7
2019-Feb-11 16:00N 26°06' W 080°07'0 0.0
2019-Feb-11 15:30N 26°06' W 080°07'0 0.0
2019-Feb-11 15:01N 26°06' W 080°07'0 0.0
2019-Feb-11 14:30N 26°06' W 080°07'0 0.0
2019-Feb-11 14:00N 26°06' W 080°07'0 0.0
2019-Feb-11 13:30N 26°06' W 080°07'0 0.0
2019-Feb-11 13:00N 26°06' W 080°07'0 0.0
2019-Feb-11 12:30N 26°06' W 080°07'0 0.0
2019-Feb-11 12:00N 26°06' W 080°07'0 0.0
2019-Feb-11 11:30N 26°06' W 080°07'0 0.0
2019-Feb-11 11:00N 26°06' W 080°07'0 0.0
2019-Feb-11 10:30N 26°06' W 080°07'0 0.0
2019-Feb-11 10:00N 26°06' W 080°07'0 0.0
2019-Feb-11 09:30N 26°06' W 080°07'0 0.0
2019-Feb-11 09:00N 26°06' W 080°07'0 0.0
2019-Feb-11 08:30N 26°06' W 080°07'0 0.0
2019-Feb-11 08:00N 26°06' W 080°07'0 0.0
2019-Feb-11 07:30N 26°06' W 080°07'0 0.0
2019-Feb-11 07:00N 26°06' W 080°07'0 0.0
2019-Feb-11 06:30N 26°06' W 080°07'0 0.0
2019-Feb-11 06:00N 26°06' W 080°07'0 0.0
2019-Feb-11 05:30N 26°06' W 080°07'0 0.0
2019-Feb-11 05:01N 26°06' W 080°07'0 0.0
2019-Feb-11 04:30N 26°06' W 080°07'0 0.0
2019-Feb-11 04:00N 26°06' W 080°07'0 0.0
2019-Feb-11 03:30N 26°06' W 080°07'0 0.0
2019-Feb-11 03:00N 26°06' W 080°07'0 0.0
2019-Feb-11 02:30N 26°06' W 080°07'0 0.0
2019-Feb-11 02:00N 26°06' W 080°07'0 0.0
2019-Feb-11 01:30N 26°06' W 080°07'0 0.0
2019-Feb-11 01:00N 26°06' W 080°07'0 0.0
2019-Feb-11 00:30N 26°06' W 080°07'0 0.0
2019-Feb-11 00:00N 26°06' W 080°07'0 0.0
2019-Feb-10 23:30N 26°06' W 080°07'0 0.0
2019-Feb-10 23:00N 26°06' W 080°07'0 0.0
2019-Feb-10 22:31N 26°06' W 080°07'0 0.0
2019-Feb-10 22:00N 26°06' W 080°07'0 0.0
2019-Feb-10 21:30N 26°06' W 080°07'0 0.0
2019-Feb-10 21:00N 26°06' W 080°07'0 0.0
2019-Feb-10 20:30N 26°06' W 080°07'0 0.0
2019-Feb-10 20:00N 26°06' W 080°07'0 0.0
2019-Feb-10 19:30N 26°06' W 080°07'0 0.0
2019-Feb-10 19:00N 26°06' W 080°07'0 0.0
2019-Feb-10 18:30N 26°06' W 080°07'0 0.0
2019-Feb-10 18:00N 26°06' W 080°07'0 0.0
2019-Feb-10 17:30N 26°06' W 080°07'0 0.0
2019-Feb-10 17:00N 26°06' W 080°07'0 0.0
2019-Feb-10 16:30N 26°06' W 080°07'0 0.0
2019-Feb-10 16:01N 26°06' W 080°07'0 0.0
2019-Feb-10 15:31N 26°06' W 080°07'0 0.0
2019-Feb-10 15:00N 26°06' W 080°07'0 0.0
2019-Feb-10 14:31N 26°06' W 080°07'0 0.0
2019-Feb-10 14:00N 26°06' W 080°07'0 0.0
2019-Feb-10 13:31N 26°06' W 080°07'0 0.0
2019-Feb-10 13:01N 26°06' W 080°07'0 0.0
2019-Feb-10 12:30N 26°06' W 080°07'0 0.0
2019-Feb-10 12:00N 26°06' W 080°07'0 0.0
2019-Feb-10 11:30N 26°06' W 080°07'0 0.0
2019-Feb-10 11:00N 26°06' W 080°07'0 0.0
2019-Feb-10 10:31N 26°06' W 080°07'0 0.0
2019-Feb-10 10:00N 26°06' W 080°07'0 0.0
2019-Feb-10 09:31N 26°06' W 080°07'0 0.0
2019-Feb-10 09:00N 26°06' W 080°07'0 0.0
2019-Feb-10 08:30N 26°06' W 080°07'0 0.0
2019-Feb-10 08:00N 26°06' W 080°07'0 0.0
2019-Feb-10 07:30N 26°06' W 080°07'0 0.0
2019-Feb-10 07:01N 26°06' W 080°07'0 0.0
2019-Feb-10 06:30N 26°06' W 080°07'0 0.0
2019-Feb-10 06:00N 26°06' W 080°07'0 0.0
2019-Feb-10 05:30N 26°06' W 080°07'0 0.0
2019-Feb-10 05:00N 26°06' W 080°07'0 0.0
2019-Feb-10 04:30N 26°06' W 080°07'0 0.0
2019-Feb-10 04:00N 26°06' W 080°07'0 0.0
2019-Feb-10 03:30N 26°06' W 080°07'0 0.0
2019-Feb-10 03:00N 26°06' W 080°07'0 0.0
2019-Feb-10 02:30N 26°06' W 080°07'0 0.0
2019-Feb-10 02:00N 26°06' W 080°07'0 0.0
2019-Feb-10 01:30N 26°06' W 080°07'0 0.0
2019-Feb-10 01:01N 26°06' W 080°07'0 0.0
2019-Feb-10 00:30N 26°06' W 080°07'0 0.0
2019-Feb-10 00:00N 26°06' W 080°07'0 0.0
2019-Feb-09 23:30N 26°06' W 080°07'0 0.0
2019-Feb-09 23:00N 26°06' W 080°07'0 0.0
2019-Feb-09 22:30N 26°06' W 080°07'0 0.0
2019-Feb-09 22:00N 26°06' W 080°07'0 0.0
2019-Feb-09 21:31N 26°06' W 080°07'0 0.0
2019-Feb-09 21:00N 26°06' W 080°07'0 0.0
2019-Feb-09 20:30N 26°06' W 080°07'0 0.0
2019-Feb-09 20:00N 26°06' W 080°07'0 0.0
2019-Feb-09 19:30N 26°06' W 080°07'0 0.0
2019-Feb-09 19:00N 26°06' W 080°07'0 0.0
2019-Feb-09 18:31N 26°06' W 080°07'0 0.2
2019-Feb-09 18:00N 26°06' W 080°07'0 0.0
2019-Feb-09 17:30N 26°06' W 080°07'0 0.0
2019-Feb-09 17:00N 26°06' W 080°07'0 0.0
2019-Feb-09 16:30N 26°06' W 080°07'0 0.0
2019-Feb-09 16:00N 26°06' W 080°07'0 0.0
2019-Feb-09 15:30N 26°06' W 080°07'0 0.0
2019-Feb-09 15:00N 26°06' W 080°07'0 0.0
2019-Feb-09 14:31N 26°06' W 080°07'0 0.0
2019-Feb-09 14:01N 26°06' W 080°07'0 0.0
2019-Feb-09 13:30N 26°06' W 080°07'0 0.0
2019-Feb-09 13:00N 26°06' W 080°07'0 0.0
2019-Feb-09 12:30N 26°06' W 080°07'0 0.0
2019-Feb-09 12:00N 26°06' W 080°07'0 0.0
2019-Feb-09 11:30N 26°06' W 080°07'0 0.0
2019-Feb-09 11:00N 26°06' W 080°07'0 0.0
2019-Feb-09 10:30N 26°06' W 080°07'0 0.0
2019-Feb-09 10:00N 26°06' W 080°07'0 0.0
2019-Feb-09 09:31N 26°06' W 080°07'0 0.0
2019-Feb-09 09:00N 26°06' W 080°07'0 0.0
2019-Feb-09 08:31N 26°06' W 080°07'0 0.0
2019-Feb-09 08:00N 26°06' W 080°07'0 0.0
2019-Feb-09 07:30N 26°06' W 080°07'0 0.0
2019-Feb-09 07:01N 26°06' W 080°07'0 0.0
2019-Feb-09 06:30N 26°06' W 080°07'0 0.0
2019-Feb-09 06:00N 26°06' W 080°07'0 0.0
2019-Feb-09 05:30N 26°06' W 080°07'0 0.0
2019-Feb-09 05:00N 26°06' W 080°07'0 0.0
2019-Feb-09 04:30N 26°06' W 080°07'0 0.0
2019-Feb-09 04:00N 26°06' W 080°07'0 0.0
2019-Feb-09 03:30N 26°06' W 080°07'0 0.0
2019-Feb-09 03:00N 26°06' W 080°07'0 0.0
2019-Feb-09 02:30N 26°06' W 080°07'0 0.0
2019-Feb-09 02:00N 26°06' W 080°07'0 0.0
2019-Feb-09 01:30N 26°06' W 080°07'0 0.0
2019-Feb-09 01:00N 26°06' W 080°07'0 0.0
2019-Feb-09 00:30N 26°06' W 080°07'0 0.0
2019-Feb-09 00:00N 26°06' W 080°07'0 0.0
2019-Feb-08 23:30N 26°06' W 080°07'0 0.0
2019-Feb-08 23:00N 26°06' W 080°07'0 0.0
2019-Feb-08 22:30N 26°06' W 080°07'0 0.0
2019-Feb-08 22:00N 26°06' W 080°07'0 0.0
2019-Feb-08 21:30N 26°06' W 080°07'0 0.0
2019-Feb-08 21:01N 26°06' W 080°07'0 0.0
2019-Feb-08 20:30N 26°06' W 080°07'0 0.0
2019-Feb-08 20:01N 26°06' W 080°07'0 0.0
2019-Feb-08 19:30N 26°06' W 080°07'0 0.0
2019-Feb-08 19:01N 26°06' W 080°07'0 0.0
2019-Feb-08 18:30N 26°06' W 080°07'0 0.0
2019-Feb-08 18:00N 26°06' W 080°07'0 0.0
2019-Feb-08 17:31N 26°06' W 080°07'0 0.0
2019-Feb-08 17:01N 26°06' W 080°07'0 0.0
2019-Feb-08 16:31N 26°06' W 080°07'0 0.0
2019-Feb-08 16:00N 26°06' W 080°07'0 0.4
2019-Feb-08 15:30N 26°06' W 080°07'3 5.1
2019-Feb-08 15:00N 26°05' W 080°04'3 6.8
2019-Feb-08 14:30N 26°05' W 080°01'1 1.6
2019-Feb-08 14:00N 26°04' W 080°01'1 1.1
2019-Feb-08 13:30N 26°03' W 080°01'1 2.0
2019-Feb-08 13:00N 26°02' W 080°01'2 3.2
2019-Feb-08 12:30N 26°01' W 080°01'2 4.5
2019-Feb-08 12:00N 25°59' W 080°00'2 4.8
2019-Feb-08 11:30N 25°56' W 080°01'2 4.7
2019-Feb-08 11:00N 25°54' W 080°02'2 4.3
2019-Feb-08 10:31N 25°52' W 080°02'3 5.1
2019-Feb-08 10:00N 25°50' W 080°01'3 5.4
2019-Feb-08 09:30N 25°47' W 080°01'3 6.1
2019-Feb-08 09:00N 25°44' W 080°00'3 6.4
2019-Feb-08 08:30N 25°41' W 079°60'3 6.5
2019-Feb-08 08:00N 25°38' W 079°60'3 6.4
2019-Feb-08 07:31N 25°34' W 079°59'3 6.3
2019-Feb-08 07:00N 25°31' W 079°59'  

Dump ship's entire track history